createdAt,value
2018-05-08T00:00:19.675Z,0.00
2018-05-08T00:00:55.026Z,0.00
2018-05-08T00:01:30.175Z,0.00
2018-05-08T00:02:05.524Z,0.00
2018-05-08T00:02:41.044Z,0.00
2018-05-08T00:03:16.640Z,0.00
2018-05-08T00:03:52.070Z,0.00
2018-05-08T00:04:27.389Z,0.00
2018-05-08T00:05:02.770Z,0.00
2018-05-08T00:05:38.409Z,0.00
2018-05-08T00:06:13.493Z,0.00
2018-05-08T00:06:48.796Z,0.00
2018-05-08T00:07:24.121Z,0.00
2018-05-08T00:07:59.518Z,0.00
2018-05-08T00:08:34.533Z,0.00
2018-05-08T00:09:09.720Z,0.00
2018-05-08T00:09:45.193Z,0.00
2018-05-08T00:10:20.819Z,0.00
2018-05-08T00:10:56.338Z,0.00
2018-05-08T00:11:31.973Z,0.00
2018-05-08T00:12:07.372Z,0.00
2018-05-08T00:12:42.911Z,0.00
2018-05-08T00:13:18.211Z,0.00
2018-05-08T00:13:53.453Z,0.00
2018-05-08T00:14:29.189Z,0.00
2018-05-08T00:15:04.375Z,0.00
2018-05-08T00:15:40.499Z,0.00
2018-05-08T00:16:16.205Z,0.00
2018-05-08T00:16:51.868Z,0.00
2018-05-08T00:17:27.109Z,0.00
2018-05-08T00:18:02.410Z,0.00
2018-05-08T00:18:37.749Z,0.00
2018-05-08T00:19:13.248Z,0.00
2018-05-08T00:19:48.646Z,0.00
2018-05-08T00:20:24.057Z,0.00
2018-05-08T00:20:59.483Z,0.00
2018-05-08T00:21:34.819Z,0.00
2018-05-08T00:22:10.575Z,0.00
2018-05-08T00:22:45.977Z,0.00
2018-05-08T00:23:21.588Z,0.00
2018-05-08T00:23:57.238Z,0.00
2018-05-08T00:24:32.762Z,0.00
2018-05-08T00:25:08.057Z,0.00
2018-05-08T00:25:45.479Z,0.00
2018-05-08T00:26:21.097Z,0.00
2018-05-08T00:26:56.458Z,0.00
2018-05-08T00:27:31.664Z,0.00
2018-05-08T00:28:06.961Z,0.00
2018-05-08T00:28:42.284Z,0.00
2018-05-08T00:29:17.708Z,0.00
2018-05-08T00:29:52.829Z,0.00
2018-05-08T00:30:28.145Z,0.00
2018-05-08T00:31:03.648Z,0.00
2018-05-08T00:31:39.076Z,0.00
2018-05-08T00:32:14.508Z,0.00
2018-05-08T00:32:49.728Z,0.00
2018-05-08T00:33:25.261Z,0.00
2018-05-08T00:34:00.643Z,0.00
2018-05-08T00:34:35.889Z,0.00
2018-05-08T00:35:11.237Z,0.00
2018-05-08T00:35:47.158Z,0.00
2018-05-08T00:36:22.795Z,0.00
2018-05-08T00:36:58.556Z,0.00
2018-05-08T00:37:33.960Z,0.00
2018-05-08T00:38:09.407Z,0.00
2018-05-08T00:38:44.783Z,0.00
2018-05-08T00:39:19.971Z,0.00
2018-05-08T00:39:55.095Z,0.00
2018-05-08T00:40:30.892Z,0.00
2018-05-08T00:41:06.192Z,0.00
2018-05-08T00:41:42.003Z,0.00
2018-05-08T00:42:17.211Z,0.00
2018-05-08T00:42:52.454Z,0.00
2018-05-08T00:43:27.584Z,0.00
2018-05-08T00:44:03.020Z,0.00
2018-05-08T00:44:38.495Z,0.00
2018-05-08T00:45:13.678Z,0.00
2018-05-08T00:45:49.213Z,0.00
2018-05-08T00:46:24.729Z,0.00
2018-05-08T00:47:00.389Z,0.00
2018-05-08T00:47:35.825Z,0.00
2018-05-08T00:48:11.033Z,0.00
2018-05-08T00:48:46.551Z,0.00
2018-05-08T00:49:22.050Z,0.00
2018-05-08T00:49:57.357Z,0.00
2018-05-08T00:50:32.777Z,0.00
2018-05-08T00:51:08.503Z,0.00
2018-05-08T00:51:43.940Z,0.00
2018-05-08T00:52:19.459Z,0.00
2018-05-08T00:52:55.082Z,0.00
2018-05-08T00:53:30.594Z,0.00
2018-05-08T00:54:06.155Z,0.00
2018-05-08T00:54:41.472Z,0.00
2018-05-08T00:55:16.778Z,0.00
2018-05-08T00:55:52.012Z,0.00
2018-05-08T00:56:29.025Z,0.00
2018-05-08T00:57:06.869Z,0.00
2018-05-08T00:57:43.175Z,0.00
2018-05-08T00:58:18.390Z,0.00
2018-05-08T00:58:53.493Z,0.00
2018-05-08T00:59:29.100Z,0.00
2018-05-08T01:00:04.649Z,0.00
2018-05-08T01:00:40.177Z,0.00
2018-05-08T01:01:15.787Z,0.00
2018-05-08T01:01:51.100Z,0.00
2018-05-08T01:02:27.325Z,0.00
2018-05-08T01:03:02.451Z,0.00
2018-05-08T01:03:37.862Z,0.00
2018-05-08T01:04:13.160Z,0.00
2018-05-08T01:04:48.975Z,0.00
2018-05-08T01:05:26.573Z,0.00
2018-05-08T01:06:02.103Z,0.00
2018-05-08T01:06:37.436Z,0.00
2018-05-08T01:07:12.954Z,0.00
2018-05-08T01:07:48.601Z,0.00
2018-05-08T01:08:24.005Z,0.00
2018-05-08T01:08:59.230Z,0.00
2018-05-08T01:09:34.666Z,0.00
2018-05-08T01:10:10.067Z,0.00
2018-05-08T01:10:45.204Z,0.00
2018-05-08T01:11:20.903Z,0.00
2018-05-08T01:11:56.749Z,0.00
2018-05-08T01:12:32.059Z,0.00
2018-05-08T01:13:07.740Z,0.00
2018-05-08T01:13:43.126Z,0.00
2018-05-08T01:14:18.321Z,0.00
2018-05-08T01:14:53.745Z,0.00
2018-05-08T01:15:29.051Z,0.00
2018-05-08T01:16:04.513Z,0.00
2018-05-08T01:16:39.948Z,0.00
2018-05-08T01:17:16.742Z,0.00
2018-05-08T01:17:51.996Z,0.00
2018-05-08T01:18:27.747Z,0.00
2018-05-08T01:19:03.489Z,0.00
2018-05-08T01:19:38.919Z,0.00
2018-05-08T01:20:14.333Z,0.00
2018-05-08T01:20:50.050Z,0.00
2018-05-08T01:21:25.681Z,0.00
2018-05-08T01:22:01.007Z,0.00
2018-05-08T01:22:36.411Z,0.00
2018-05-08T01:23:11.739Z,0.00
2018-05-08T01:23:47.223Z,0.00
2018-05-08T01:24:22.645Z,0.00
2018-05-08T01:24:57.973Z,0.00
2018-05-08T01:25:33.269Z,0.00
2018-05-08T01:26:08.724Z,0.00
2018-05-08T01:26:43.940Z,0.00
2018-05-08T01:27:19.925Z,0.00
2018-05-08T01:27:55.034Z,0.00
2018-05-08T01:28:30.415Z,0.00
2018-05-08T01:29:05.675Z,0.00
2018-05-08T01:29:40.891Z,0.00
2018-05-08T01:30:16.626Z,0.00
2018-05-08T01:30:52.087Z,0.00
2018-05-08T01:31:27.387Z,0.00
2018-05-08T01:32:02.739Z,0.00
2018-05-08T01:32:38.143Z,0.00
2018-05-08T01:33:13.403Z,0.00
2018-05-08T01:33:48.637Z,0.00
2018-05-08T01:34:23.966Z,0.00
2018-05-08T01:34:59.386Z,0.00
2018-05-08T01:35:35.783Z,0.00
2018-05-08T01:36:11.118Z,0.00
2018-05-08T01:36:46.484Z,0.00
2018-05-08T01:37:21.878Z,0.00
2018-05-08T01:37:56.995Z,0.00
2018-05-08T01:38:32.214Z,0.00
2018-05-08T01:39:07.584Z,0.00
2018-05-08T01:39:42.985Z,0.00
2018-05-08T01:40:18.414Z,0.00
2018-05-08T01:40:53.562Z,0.00
2018-05-08T01:41:28.671Z,0.00
2018-05-08T01:42:03.908Z,0.00
2018-05-08T01:42:39.302Z,0.00
2018-05-08T01:43:14.952Z,0.00
2018-05-08T01:43:50.258Z,0.00
2018-05-08T01:44:25.429Z,0.00
2018-05-08T01:45:00.852Z,0.00
2018-05-08T01:45:36.040Z,0.00
2018-05-08T01:46:11.388Z,0.00
2018-05-08T01:46:47.323Z,0.00
2018-05-08T01:47:22.706Z,0.00
2018-05-08T01:47:57.939Z,0.00
2018-05-08T01:48:33.138Z,0.00
2018-05-08T01:49:08.647Z,0.00
2018-05-08T01:49:44.022Z,0.00
2018-05-08T01:50:19.113Z,0.00
2018-05-08T01:50:54.243Z,0.00
2018-05-08T01:51:29.640Z,0.00
2018-05-08T01:52:05.293Z,0.00
2018-05-08T01:52:40.909Z,0.00
2018-05-08T01:53:16.223Z,0.00
2018-05-08T01:53:51.921Z,0.00
2018-05-08T01:54:27.209Z,0.00
2018-05-08T01:55:02.765Z,0.00
2018-05-08T01:55:38.194Z,0.00
2018-05-08T01:56:13.841Z,0.00
2018-05-08T01:56:50.157Z,0.00
2018-05-08T01:57:26.052Z,0.00
2018-05-08T01:58:01.511Z,0.00
2018-05-08T01:58:36.844Z,0.00
2018-05-08T01:59:12.348Z,0.00
2018-05-08T01:59:47.745Z,0.00
2018-05-08T02:00:23.146Z,0.00
2018-05-08T02:00:58.681Z,0.00
2018-05-08T02:01:34.439Z,0.00
2018-05-08T02:02:10.091Z,0.00
2018-05-08T02:02:45.449Z,0.00
2018-05-08T02:03:20.927Z,0.00
2018-05-08T02:03:56.343Z,0.00
2018-05-08T02:04:31.365Z,0.00
2018-05-08T02:05:06.630Z,0.00
2018-05-08T02:05:42.435Z,0.00
2018-05-08T02:06:17.799Z,0.00
2018-05-08T02:06:53.078Z,0.00
2018-05-08T02:07:28.405Z,0.00
2018-05-08T02:08:03.714Z,0.00
2018-05-08T02:08:38.926Z,0.00
2018-05-08T02:09:14.643Z,0.00
2018-05-08T02:09:49.852Z,0.00
2018-05-08T02:10:25.187Z,0.00
2018-05-08T02:11:00.426Z,0.00
2018-05-08T02:11:36.135Z,0.00
2018-05-08T02:12:11.535Z,0.00
2018-05-08T02:12:46.929Z,0.00
2018-05-08T02:13:22.362Z,0.00
2018-05-08T02:13:57.279Z,0.00
2018-05-08T02:14:32.495Z,0.00
2018-05-08T02:15:08.211Z,0.00
2018-05-08T02:15:43.572Z,0.00
2018-05-08T02:16:18.944Z,0.00
2018-05-08T02:16:54.445Z,0.00
2018-05-08T02:17:29.995Z,0.00
2018-05-08T02:18:05.723Z,0.00
2018-05-08T02:18:41.427Z,0.00
2018-05-08T02:19:16.457Z,0.00
2018-05-08T02:19:51.861Z,0.00
2018-05-08T02:20:27.236Z,0.00
2018-05-08T02:21:02.605Z,0.00
2018-05-08T02:21:37.713Z,0.00
2018-05-08T02:22:12.911Z,0.00
2018-05-08T02:22:48.058Z,0.00
2018-05-08T02:23:23.702Z,0.00
2018-05-08T02:23:59.120Z,0.00
2018-05-08T02:24:34.555Z,0.00
2018-05-08T02:25:10.166Z,0.00
2018-05-08T02:25:45.895Z,0.00
2018-05-08T02:26:20.928Z,0.00
2018-05-08T02:26:56.361Z,0.00
2018-05-08T02:27:31.990Z,0.00
2018-05-08T02:28:07.601Z,0.00
2018-05-08T02:28:43.040Z,0.00
2018-05-08T02:29:18.362Z,0.00
2018-05-08T02:29:53.868Z,0.00
2018-05-08T02:30:29.484Z,0.00
2018-05-08T02:31:04.914Z,0.00
2018-05-08T02:31:40.160Z,0.00
2018-05-08T02:32:15.503Z,0.00
2018-05-08T02:32:51.002Z,0.00
2018-05-08T02:33:26.333Z,0.00
2018-05-08T02:34:01.847Z,0.00
2018-05-08T02:34:37.488Z,0.00
2018-05-08T02:35:13.038Z,0.00
2018-05-08T02:35:49.820Z,0.00
2018-05-08T02:36:25.608Z,0.00
2018-05-08T02:37:01.079Z,0.00
2018-05-08T02:37:36.408Z,0.00
2018-05-08T02:38:11.558Z,0.00
2018-05-08T02:38:47.205Z,0.00
2018-05-08T02:39:22.534Z,0.00
2018-05-08T02:39:58.131Z,0.00
2018-05-08T02:40:33.567Z,0.00
2018-05-08T02:41:08.777Z,0.00
2018-05-08T02:41:44.317Z,0.00
2018-05-08T02:42:19.986Z,0.00
2018-05-08T02:42:55.398Z,0.00
2018-05-08T02:43:32.231Z,0.00
2018-05-08T02:44:07.459Z,0.00
2018-05-08T02:44:42.778Z,0.00
2018-05-08T02:45:18.264Z,0.00
2018-05-08T02:45:53.547Z,0.00
2018-05-08T02:46:29.127Z,0.00
2018-05-08T02:47:04.214Z,0.00
2018-05-08T02:47:39.867Z,0.00
2018-05-08T02:48:16.520Z,0.00
2018-05-08T02:48:51.737Z,0.00
2018-05-08T02:49:27.049Z,0.00
2018-05-08T02:50:02.253Z,0.00
2018-05-08T02:50:38.261Z,0.00
2018-05-08T02:51:13.568Z,0.00
2018-05-08T02:51:48.864Z,0.00
2018-05-08T02:52:24.258Z,0.00
2018-05-08T02:52:59.464Z,0.00
2018-05-08T02:53:35.008Z,0.00
2018-05-08T02:54:10.391Z,0.00
2018-05-08T02:54:46.005Z,0.00
2018-05-08T02:55:21.425Z,0.00
2018-05-08T02:55:56.917Z,0.00
2018-05-08T02:56:32.244Z,0.00
2018-05-08T02:57:08.745Z,0.00
2018-05-08T02:57:44.182Z,0.00
2018-05-08T02:58:19.200Z,0.00
2018-05-08T02:58:54.450Z,0.00
2018-05-08T02:59:29.765Z,0.00
2018-05-08T03:00:04.981Z,0.00
2018-05-08T03:00:41.612Z,0.00
2018-05-08T03:01:17.029Z,0.00
2018-05-08T03:01:53.814Z,0.00
2018-05-08T03:02:29.268Z,0.00
2018-05-08T03:03:04.774Z,0.00
2018-05-08T03:03:40.092Z,0.00
2018-05-08T03:04:15.493Z,0.00
2018-05-08T03:04:54.128Z,0.00
2018-05-08T03:05:29.635Z,0.00
2018-05-08T03:06:04.836Z,0.00
2018-05-08T03:06:41.083Z,0.00
2018-05-08T03:07:18.173Z,0.00
2018-05-08T03:07:54.488Z,0.00
2018-05-08T03:08:29.946Z,0.00
2018-05-08T03:09:05.429Z,0.00
2018-05-08T03:09:40.862Z,0.00
2018-05-08T03:10:16.072Z,0.00
2018-05-08T03:10:51.300Z,0.00
2018-05-08T03:11:26.536Z,0.00
2018-05-08T03:12:01.911Z,0.00
2018-05-08T03:12:37.230Z,0.00
2018-05-08T03:13:12.524Z,0.00
2018-05-08T03:13:47.800Z,0.00
2018-05-08T03:14:23.001Z,0.00
2018-05-08T03:14:58.349Z,0.00
2018-05-08T03:15:33.898Z,0.00
2018-05-08T03:16:09.311Z,0.00
2018-05-08T03:16:44.682Z,0.00
2018-05-08T03:17:20.181Z,4.00
2018-05-08T03:17:55.821Z,4.00
2018-05-08T03:18:31.044Z,4.00
2018-05-08T03:19:06.170Z,0.00
2018-05-08T03:19:41.717Z,0.00
2018-05-08T03:20:17.042Z,0.00
2018-05-08T03:20:52.368Z,0.00
2018-05-08T03:21:27.701Z,4.00
2018-05-08T03:22:03.086Z,4.00
2018-05-08T03:22:39.386Z,4.00
2018-05-08T03:23:15.002Z,0.00
2018-05-08T03:23:50.228Z,4.00
2018-05-08T03:24:25.453Z,4.00
2018-05-08T03:25:00.767Z,4.00
2018-05-08T03:25:36.275Z,4.00
2018-05-08T03:26:11.565Z,4.00
2018-05-08T03:26:47.981Z,4.00
2018-05-08T03:27:23.293Z,8.00
2018-05-08T03:27:58.827Z,4.00
2018-05-08T03:28:34.535Z,8.00
2018-05-08T03:29:09.803Z,8.00
2018-05-08T03:29:45.231Z,8.00
2018-05-08T03:30:20.420Z,8.00
2018-05-08T03:30:56.028Z,8.00
2018-05-08T03:31:31.472Z,8.00
2018-05-08T03:32:06.764Z,12.00
2018-05-08T03:32:42.340Z,12.00
2018-05-08T03:33:17.695Z,12.00
2018-05-08T03:33:52.929Z,12.00
2018-05-08T03:34:27.868Z,16.00
2018-05-08T03:35:03.448Z,16.00
2018-05-08T03:35:38.661Z,20.00
2018-05-08T03:36:14.508Z,16.00
2018-05-08T03:36:49.745Z,16.00
2018-05-08T03:37:25.176Z,20.00
2018-05-08T03:38:00.487Z,20.00
2018-05-08T03:38:35.947Z,20.00
2018-05-08T03:39:11.350Z,24.00
2018-05-08T03:39:47.021Z,24.00
2018-05-08T03:40:22.453Z,28.00
2018-05-08T03:40:57.986Z,28.00
2018-05-08T03:41:33.313Z,32.00
2018-05-08T03:42:08.804Z,32.00
2018-05-08T03:42:44.247Z,32.00
2018-05-08T03:43:19.581Z,36.00
2018-05-08T03:43:54.706Z,36.00
2018-05-08T03:44:30.340Z,40.00
2018-05-08T03:45:06.042Z,40.00
2018-05-08T03:45:41.618Z,44.00
2018-05-08T03:46:17.093Z,44.00
2018-05-08T03:46:52.603Z,48.00
2018-05-08T03:47:27.944Z,52.00
2018-05-08T03:48:03.379Z,52.00
2018-05-08T03:48:39.423Z,56.00
2018-05-08T03:49:14.594Z,60.00
2018-05-08T03:49:50.474Z,64.00
2018-05-08T03:50:25.785Z,64.00
2018-05-08T03:51:01.313Z,64.00
2018-05-08T03:51:36.961Z,68.00
2018-05-08T03:52:12.187Z,72.00
2018-05-08T03:52:47.705Z,72.00
2018-05-08T03:53:23.198Z,76.00
2018-05-08T03:53:58.767Z,80.00
2018-05-08T03:54:34.308Z,84.00
2018-05-08T03:55:09.854Z,88.00
2018-05-08T03:55:45.147Z,92.00
2018-05-08T03:56:20.426Z,96.00
2018-05-08T03:56:56.075Z,100.00
2018-05-08T03:57:31.055Z,100.00
2018-05-08T03:58:06.402Z,104.00
2018-05-08T03:58:41.704Z,112.00
2018-05-08T03:59:17.132Z,112.00
2018-05-08T03:59:52.343Z,116.00
2018-05-08T04:00:27.590Z,120.00
2018-05-08T04:01:04.507Z,124.00
2018-05-08T04:01:39.929Z,128.00
2018-05-08T04:02:15.438Z,132.00
2018-05-08T04:02:51.167Z,136.00
2018-05-08T04:03:26.404Z,140.00
2018-05-08T04:04:01.903Z,144.00
2018-05-08T04:04:37.325Z,148.00
2018-05-08T04:05:12.528Z,152.00
2018-05-08T04:05:51.231Z,160.00
2018-05-08T04:06:26.870Z,160.00
2018-05-08T04:07:02.523Z,164.00
2018-05-08T04:07:37.704Z,168.00
2018-05-08T04:08:13.063Z,172.00
2018-05-08T04:08:48.445Z,180.00
2018-05-08T04:09:23.793Z,184.00
2018-05-08T04:09:59.212Z,184.00
2018-05-08T04:10:35.930Z,192.00
2018-05-08T04:11:11.170Z,196.00
2018-05-08T04:11:46.499Z,196.00
2018-05-08T04:12:23.209Z,204.00
2018-05-08T04:12:59.036Z,208.00
2018-05-08T04:13:34.550Z,216.00
2018-05-08T04:14:09.991Z,216.00
2018-05-08T04:14:45.322Z,220.00
2018-05-08T04:15:20.530Z,228.00
2018-05-08T04:15:55.887Z,228.00
2018-05-08T04:16:31.199Z,232.00
2018-05-08T04:17:06.642Z,240.00
2018-05-08T04:17:42.099Z,244.00
2018-05-08T04:18:17.199Z,244.00
2018-05-08T04:18:52.634Z,252.00
2018-05-08T04:19:27.923Z,256.00
2018-05-08T04:20:03.160Z,264.00
2018-05-08T04:20:38.768Z,264.00
2018-05-08T04:21:14.133Z,268.00
2018-05-08T04:21:49.424Z,276.00
2018-05-08T04:22:24.753Z,276.00
2018-05-08T04:23:00.079Z,280.00
2018-05-08T04:23:35.297Z,288.00
2018-05-08T04:24:10.587Z,292.00
2018-05-08T04:24:46.509Z,296.00
2018-05-08T04:25:22.305Z,300.00
2018-05-08T04:25:57.672Z,304.00
2018-05-08T04:26:32.980Z,308.00
2018-05-08T04:27:08.314Z,312.00
2018-05-08T04:27:43.533Z,316.00
2018-05-08T04:28:18.770Z,324.00
2018-05-08T04:28:54.177Z,324.00
2018-05-08T04:29:29.609Z,328.00
2018-05-08T04:30:04.987Z,332.00
2018-05-08T04:30:40.954Z,340.00
2018-05-08T04:31:16.272Z,344.00
2018-05-08T04:31:51.834Z,344.00
2018-05-08T04:32:27.039Z,348.00
2018-05-08T04:33:02.551Z,352.00
2018-05-08T04:33:37.932Z,360.00
2018-05-08T04:34:13.160Z,364.00
2018-05-08T04:34:48.458Z,368.00
2018-05-08T04:35:23.685Z,368.00
2018-05-08T04:35:59.765Z,376.00
2018-05-08T04:36:35.053Z,380.00
2018-05-08T04:37:10.244Z,384.00
2018-05-08T04:37:45.871Z,388.00
2018-05-08T04:38:22.761Z,392.00
2018-05-08T04:38:58.314Z,396.00
2018-05-08T04:39:33.711Z,400.00
2018-05-08T04:40:09.299Z,404.00
2018-05-08T04:40:44.979Z,408.00
2018-05-08T04:41:20.219Z,416.00
2018-05-08T04:41:55.753Z,416.00
2018-05-08T04:42:31.783Z,420.00
2018-05-08T04:43:07.085Z,428.00
2018-05-08T04:43:46.459Z,432.00
2018-05-08T04:44:21.849Z,436.00
2018-05-08T04:44:57.187Z,440.00
2018-05-08T04:45:32.606Z,448.00
2018-05-08T04:46:07.940Z,452.00
2018-05-08T04:46:43.221Z,460.00
2018-05-08T04:47:18.886Z,464.00
2018-05-08T04:47:54.157Z,468.00
2018-05-08T04:48:29.571Z,472.00
2018-05-08T04:49:05.174Z,476.00
2018-05-08T04:49:40.415Z,480.00
2018-05-08T04:50:15.701Z,488.00
2018-05-08T04:50:51.280Z,492.00
2018-05-08T04:51:26.506Z,500.00
2018-05-08T04:52:01.949Z,508.00
2018-05-08T04:52:37.380Z,508.00
2018-05-08T04:53:12.698Z,516.00
2018-05-08T04:53:47.771Z,520.00
2018-05-08T04:54:23.185Z,524.00
2018-05-08T04:54:58.769Z,532.00
2018-05-08T04:55:34.065Z,536.00
2018-05-08T04:56:09.264Z,544.00
2018-05-08T04:56:44.392Z,548.00
2018-05-08T04:57:19.484Z,552.00
2018-05-08T04:57:55.141Z,556.00
2018-05-08T04:58:30.531Z,564.00
2018-05-08T04:59:05.873Z,568.00
2018-05-08T04:59:41.388Z,572.00
2018-05-08T05:00:16.508Z,580.00
2018-05-08T05:00:54.221Z,588.00
2018-05-08T05:01:29.507Z,596.00
2018-05-08T05:02:05.340Z,600.00
2018-05-08T05:02:41.314Z,608.00
2018-05-08T05:03:16.715Z,616.00
2018-05-08T05:03:52.156Z,624.00
2018-05-08T05:04:27.631Z,628.00
2018-05-08T05:05:02.933Z,636.00
2018-05-08T05:05:38.051Z,644.00
2018-05-08T05:06:13.162Z,652.00
2018-05-08T05:06:48.588Z,660.00
2018-05-08T05:07:24.212Z,668.00
2018-05-08T05:08:01.724Z,676.00
2018-05-08T05:08:37.081Z,684.00
2018-05-08T05:09:12.212Z,696.00
2018-05-08T05:09:47.749Z,704.00
2018-05-08T05:10:23.856Z,716.00
2018-05-08T05:10:59.187Z,724.00
2018-05-08T05:11:34.805Z,736.00
2018-05-08T05:12:10.347Z,748.00
2018-05-08T05:12:46.153Z,760.00
2018-05-08T05:13:21.726Z,772.00
2018-05-08T05:13:56.849Z,780.00
2018-05-08T05:14:32.365Z,792.00
2018-05-08T05:15:07.568Z,804.00
2018-05-08T05:15:43.012Z,820.00
2018-05-08T05:16:18.205Z,828.00
2018-05-08T05:16:53.448Z,840.00
2018-05-08T05:17:28.853Z,852.00
2018-05-08T05:18:04.289Z,864.00
2018-05-08T05:18:39.705Z,876.00
2018-05-08T05:19:15.022Z,888.00
2018-05-08T05:19:50.427Z,904.00
2018-05-08T05:20:25.851Z,912.00
2018-05-08T05:21:01.061Z,920.00
2018-05-08T05:21:36.474Z,932.00
2018-05-08T05:22:12.015Z,944.00
2018-05-08T05:22:47.517Z,952.00
2018-05-08T05:23:23.001Z,964.00
2018-05-08T05:23:58.977Z,976.00
2018-05-08T05:24:34.228Z,984.00
2018-05-08T05:25:09.620Z,1000.00
2018-05-08T05:25:45.207Z,1012.00
2018-05-08T05:26:21.552Z,1020.00
2018-05-08T05:26:57.042Z,1032.00
2018-05-08T05:27:32.794Z,1040.00
2018-05-08T05:28:08.185Z,1052.00
2018-05-08T05:28:43.604Z,1064.00
2018-05-08T05:29:22.826Z,1076.00
2018-05-08T05:29:58.042Z,1088.00
2018-05-08T05:30:33.424Z,1092.00
2018-05-08T05:31:08.743Z,1108.00
2018-05-08T05:31:44.019Z,1116.00
2018-05-08T05:32:19.421Z,1128.00
2018-05-08T05:32:54.830Z,1136.00
2018-05-08T05:33:30.161Z,1144.00
2018-05-08T05:34:05.690Z,1156.00
2018-05-08T05:34:42.101Z,1168.00
2018-05-08T05:35:17.619Z,1176.00
2018-05-08T05:35:52.973Z,1188.00
2018-05-08T05:36:28.175Z,1200.00
2018-05-08T05:37:03.622Z,1208.00
2018-05-08T05:37:39.246Z,1220.00
2018-05-08T05:38:14.566Z,1228.00
2018-05-08T05:38:50.899Z,1240.00
2018-05-08T05:39:26.545Z,1248.00
2018-05-08T05:40:02.256Z,1260.00
2018-05-08T05:40:39.397Z,1268.00
2018-05-08T05:41:14.795Z,1280.00
2018-05-08T05:41:50.382Z,1288.00
2018-05-08T05:42:25.677Z,1300.00
2018-05-08T05:43:01.031Z,1308.00
2018-05-08T05:43:36.227Z,1320.00
2018-05-08T05:44:11.688Z,1328.00
2018-05-08T05:44:47.016Z,1336.00
2018-05-08T05:45:22.565Z,1352.00
2018-05-08T05:45:59.390Z,1364.00
2018-05-08T05:46:34.729Z,1372.00
2018-05-08T05:47:10.116Z,1384.00
2018-05-08T05:47:46.341Z,1400.00
2018-05-08T05:48:22.126Z,1408.00
2018-05-08T05:48:57.585Z,1420.00
2018-05-08T05:49:32.961Z,1436.00
2018-05-08T05:50:08.111Z,1444.00
2018-05-08T05:50:44.114Z,1456.00
2018-05-08T05:51:19.569Z,1468.00
2018-05-08T05:51:54.804Z,1480.00
2018-05-08T05:52:30.114Z,1492.00
2018-05-08T05:53:05.196Z,1504.00
2018-05-08T05:53:40.501Z,1516.00
2018-05-08T05:54:15.929Z,1532.00
2018-05-08T05:54:51.863Z,1544.00
2018-05-08T05:55:27.529Z,1560.00
2018-05-08T05:56:02.864Z,1568.00
2018-05-08T05:56:38.818Z,1584.00
2018-05-08T05:57:14.405Z,1592.00
2018-05-08T05:57:49.702Z,1608.00
2018-05-08T05:58:25.249Z,1620.00
2018-05-08T05:59:00.759Z,1632.00
2018-05-08T05:59:36.010Z,1640.00
2018-05-08T06:00:11.527Z,1656.00
2018-05-08T06:00:47.851Z,1672.00
2018-05-08T06:01:23.140Z,1676.00
2018-05-08T06:01:58.364Z,1692.00
2018-05-08T06:02:33.835Z,1704.00
2018-05-08T06:03:09.363Z,1716.00
2018-05-08T06:03:44.656Z,1720.00
2018-05-08T06:04:20.013Z,1740.00
2018-05-08T06:04:55.590Z,1756.00
2018-05-08T06:05:30.829Z,1764.00
2018-05-08T06:06:06.219Z,1808.00
2018-05-08T06:06:41.562Z,1828.00
2018-05-08T06:07:16.736Z,1844.00
2018-05-08T06:07:52.070Z,1852.00
2018-05-08T06:08:27.485Z,1872.00
2018-05-08T06:09:02.701Z,1880.00
2018-05-08T06:09:39.576Z,1900.00
2018-05-08T06:10:15.039Z,1912.00
2018-05-08T06:10:53.524Z,1928.00
2018-05-08T06:11:32.080Z,1948.00
2018-05-08T06:12:12.476Z,1968.00
2018-05-08T06:12:47.991Z,1980.00
2018-05-08T06:13:23.491Z,1996.00
2018-05-08T06:13:59.119Z,2020.00
2018-05-08T06:14:35.108Z,2040.00
2018-05-08T06:15:10.244Z,2060.00
2018-05-08T06:15:46.242Z,2084.00
2018-05-08T06:16:24.316Z,2108.00
2018-05-08T06:17:03.228Z,2136.00
2018-05-08T06:17:38.549Z,2160.00
2018-05-08T06:18:14.167Z,2188.00
2018-05-08T06:18:51.503Z,2216.00
2018-05-08T06:19:27.124Z,2244.00
2018-05-08T06:20:02.709Z,2276.00
2018-05-08T06:20:38.994Z,2308.00
2018-05-08T06:21:14.213Z,2332.00
2018-05-08T06:21:49.794Z,2372.00
2018-05-08T06:22:25.208Z,2404.00
2018-05-08T06:23:00.623Z,2432.00
2018-05-08T06:23:36.268Z,2476.00
2018-05-08T06:24:11.460Z,2532.00
2018-05-08T06:24:48.982Z,2572.00
2018-05-08T06:25:24.402Z,2608.00
2018-05-08T06:26:00.134Z,2640.00
2018-05-08T06:26:35.411Z,2676.00
2018-05-08T06:27:10.583Z,2708.00
2018-05-08T06:27:45.994Z,2748.00
2018-05-08T06:28:21.929Z,2780.00
2018-05-08T06:28:57.544Z,2816.00
2018-05-08T06:29:32.785Z,2844.00
2018-05-08T06:30:08.099Z,2876.00
2018-05-08T06:30:47.249Z,2916.00
2018-05-08T06:31:22.749Z,2940.00
2018-05-08T06:31:58.122Z,2976.00
2018-05-08T06:32:33.341Z,3008.00
2018-05-08T06:33:08.766Z,3048.00
2018-05-08T06:33:46.460Z,3084.00
2018-05-08T06:34:21.804Z,3120.00
2018-05-08T06:34:59.537Z,3156.00
2018-05-08T06:35:35.265Z,3184.00
2018-05-08T06:36:10.763Z,3216.00
2018-05-08T06:36:47.492Z,3256.00
2018-05-08T06:37:22.709Z,3280.00
2018-05-08T06:37:59.533Z,3304.00
2018-05-08T06:38:35.035Z,3336.00
2018-05-08T06:39:10.737Z,3360.00
2018-05-08T06:39:45.848Z,3392.00
2018-05-08T06:40:21.269Z,3412.00
2018-05-08T06:40:57.284Z,3444.00
2018-05-08T06:41:32.314Z,3464.00
2018-05-08T06:42:09.523Z,3508.00
2018-05-08T06:42:44.989Z,3532.00
2018-05-08T06:43:20.499Z,3556.00
2018-05-08T06:43:55.833Z,3580.00
2018-05-08T06:44:31.016Z,3616.00
2018-05-08T06:45:06.144Z,3640.00
2018-05-08T06:45:41.652Z,3664.00
2018-05-08T06:46:17.412Z,3688.00
2018-05-08T06:46:53.009Z,3704.00
2018-05-08T06:47:28.343Z,3720.00
2018-05-08T06:48:03.474Z,3740.00
2018-05-08T06:48:39.475Z,3760.00
2018-05-08T06:49:14.682Z,3784.00
2018-05-08T06:49:49.998Z,3800.00
2018-05-08T06:50:25.517Z,3812.00
2018-05-08T06:51:03.068Z,3832.00
2018-05-08T06:51:38.455Z,3848.00
2018-05-08T06:52:13.966Z,3864.00
2018-05-08T06:52:49.802Z,3884.00
2018-05-08T06:53:25.681Z,3896.00
2018-05-08T06:54:00.990Z,3912.00
2018-05-08T06:54:39.643Z,3928.00
2018-05-08T06:55:15.122Z,3948.00
2018-05-08T06:55:50.452Z,3968.00
2018-05-08T06:56:25.573Z,3984.00
2018-05-08T06:57:00.917Z,4012.00
2018-05-08T06:57:36.053Z,4020.00
2018-05-08T06:58:11.889Z,4032.00
2018-05-08T06:58:47.011Z,4052.00
2018-05-08T06:59:22.411Z,4072.00
2018-05-08T06:59:57.988Z,4088.00
2018-05-08T07:00:33.212Z,4108.00
2018-05-08T07:01:09.610Z,4132.00
2018-05-08T07:01:45.040Z,4148.00
2018-05-08T07:02:20.475Z,4168.00
2018-05-08T07:02:55.911Z,4180.00
2018-05-08T07:03:31.545Z,4200.00
2018-05-08T07:04:07.227Z,4236.00
2018-05-08T07:04:42.491Z,4264.00
2018-05-08T07:05:17.746Z,4280.00
2018-05-08T07:05:53.139Z,4308.00
2018-05-08T07:06:28.598Z,4336.00
2018-05-08T07:07:03.706Z,4356.00
2018-05-08T07:07:38.945Z,4380.00
2018-05-08T07:08:14.266Z,4408.00
2018-05-08T07:08:49.430Z,4436.00
2018-05-08T07:09:24.754Z,4472.00
2018-05-08T07:10:00.077Z,4504.00
2018-05-08T07:10:35.890Z,4524.00
2018-05-08T07:11:11.238Z,4572.00
2018-05-08T07:11:46.722Z,4604.00
2018-05-08T07:12:22.159Z,4640.00
2018-05-08T07:12:57.284Z,4676.00
2018-05-08T07:13:32.534Z,4708.00
2018-05-08T07:14:07.742Z,4740.00
2018-05-08T07:14:43.171Z,4792.00
2018-05-08T07:15:18.377Z,4840.00
2018-05-08T07:15:53.799Z,4880.00
2018-05-08T07:16:28.898Z,4924.00
2018-05-08T07:17:04.209Z,4976.00
2018-05-08T07:17:40.110Z,5032.00
2018-05-08T07:18:15.420Z,5100.00
2018-05-08T07:18:51.030Z,5160.00
2018-05-08T07:19:26.500Z,5236.00
2018-05-08T07:20:01.995Z,5308.00
2018-05-08T07:20:39.459Z,5404.00
2018-05-08T07:21:14.579Z,5500.00
2018-05-08T07:21:50.336Z,5640.00
2018-05-08T07:22:26.056Z,5776.00
2018-05-08T07:23:01.701Z,5952.00
2018-05-08T07:23:37.236Z,6216.00
2018-05-08T07:24:12.689Z,6752.00
2018-05-08T07:24:48.532Z,8264.00
2018-05-08T07:25:24.079Z,12392.00
2018-05-08T07:25:59.197Z,18464.00
2018-05-08T07:26:34.925Z,26048.00
2018-05-08T07:27:10.450Z,31072.00
2018-05-08T07:27:45.706Z,34016.00
2018-05-08T07:28:21.208Z,34016.00
2018-05-08T07:28:56.470Z,33248.00
2018-05-08T07:29:32.063Z,34176.00
2018-05-08T07:30:07.571Z,33248.00
2018-05-08T07:30:44.569Z,33024.00
2018-05-08T07:31:20.073Z,33376.00
2018-05-08T07:31:55.305Z,33536.00
2018-05-08T07:32:30.667Z,32768.00
2018-05-08T07:33:06.088Z,31200.00